Time;durP1;ratioP1;P1;durP2;ratioP2;P2;SDS_P1;SDS_P2;PMS_P1;PMS_P2;Temp;Humidity;BMP_temperature;BMP_pressure;BME280_temperature;BME280_humidity;BME280_pressure;Samples;Min_cycle;Max_cycle;Signal;HPM_P1;HPM_P2
2023/05/20 00:00:38;;;;;;;11.67;10.47;;;;;;;11.62;100.00;96317.03;5069035;27;102887;-60
2023/05/20 00:03:05;;;;;;;10.43;9.43;;;;;;;11.52;100.00;96319.59;5064622;27;105601;-60
2023/05/20 00:05:33;;;;;;;11.50;10.23;;;;;;;11.46;100.00;96317.97;5051235;27;102936;-59
2023/05/20 00:08:03;;;;;;;12.50;11.20;;;;;;;11.39;100.00;96323.53;5055153;27;102546;-60
2023/05/20 00:10:30;;;;;;;11.70;10.60;;;;;;;11.40;100.00;96324.34;5057191;27;102072;-59
2023/05/20 00:12:57;;;;;;;13.67;11.43;;;;;;;11.47;100.00;96315.06;5048185;27;103914;-60
2023/05/20 00:15:24;;;;;;;12.73;11.13;;;;;;;11.28;100.00;96316.53;5047724;27;105362;-60
2023/05/20 00:17:50;;;;;;;11.60;10.50;;;;;;;11.25;100.00;96321.56;5048132;27;101973;-60
2023/05/20 00:20:18;;;;;;;10.70;9.80;;;;;;;11.25;100.00;96318.91;5059727;27;102402;-60
2023/05/20 00:22:46;;;;;;;10.30;9.30;;;;;;;11.12;100.00;96306.03;5064916;27;105614;-60
2023/05/20 00:25:14;;;;;;;11.10;9.83;;;;;;;10.94;100.00;96309.91;5053752;27;102313;-60
2023/05/20 00:27:41;;;;;;;10.47;9.47;;;;;;;11.02;100.00;96311.28;5049582;27;102646;-61
2023/05/20 00:30:09;;;;;;;11.07;9.67;;;;;;;11.05;100.00;96310.75;5057604;27;102331;-60
2023/05/20 00:32:36;;;;;;;10.97;9.90;;;;;;;11.05;100.00;96308.91;5066381;27;105240;-60
2023/05/20 00:35:05;;;;;;;11.70;10.70;;;;;;;10.96;100.00;96310.44;5049888;27;103038;-60
2023/05/20 00:37:32;;;;;;;10.83;9.73;;;;;;;11.00;100.00;96316.03;5048991;27;102096;-60
2023/05/20 00:40:00;;;;;;;12.63;11.50;;;;;;;10.97;100.00;96300.59;5050185;27;102497;-60
2023/05/20 00:42:28;;;;;;;14.00;12.70;;;;;;;11.05;100.00;96305.44;5048064;27;105743;-60
2023/05/20 00:44:56;;;;;;;12.00;10.83;;;;;;;10.89;100.00;96306.38;5051418;27;102025;-60
2023/05/20 00:47:28;;;;;;;12.50;11.23;;;;;;;10.94;100.00;96311.75;5056702;27;103114;-59
2023/05/20 00:49:55;;;;;;;12.57;11.37;;;;;;;10.91;100.00;96293.63;5069424;27;102228;-60
2023/05/20 00:52:23;;;;;;;15.70;12.80;;;;;;;10.83;100.00;96299.41;5067598;27;105556;-60
2023/05/20 00:54:50;;;;;;;14.40;13.00;;;;;;;10.80;100.00;96297.28;5048079;27;102736;-59
2023/05/20 00:57:19;;;;;;;16.77;14.93;;;;;;;10.81;100.00;96301.53;5048111;27;102123;-59
2023/05/20 00:59:47;;;;;;;16.27;12.93;;;;;;;10.85;100.00;96305.31;5047686;27;105147;-59
2023/05/20 01:02:14;;;;;;;15.13;12.50;;;;;;;10.87;100.00;96311.97;5054649;27;102610;-60
2023/05/20 01:04:45;;;;;;;13.77;12.47;;;;;;;10.84;100.00;96309.81;5067802;27;103021;-60
2023/05/20 01:07:15;;;;;;;12.50;11.37;;;;;;;10.84;100.00;96312.47;5065710;27;102568;-60
2023/05/20 01:09:42;;;;;;;12.73;11.50;;;;;;;10.84;100.00;96319.66;5047195;27;102275;-60
2023/05/20 01:12:16;;;;;;;13.60;11.97;;;;;;;10.73;100.00;96307.31;5053844;27;105863;-60
2023/05/20 01:14:49;;;;;;;11.47;10.33;;;;;;;10.63;100.00;96301.91;5049310;27;102540;-60
2023/05/20 01:17:19;;;;;;;11.80;10.67;;;;;;;10.60;100.00;96291.78;5053996;27;102123;-60
2023/05/20 01:19:47;;;;;;;11.87;10.67;;;;;;;10.50;100.00;96289.00;5067728;27;104983;-60
2023/05/20 01:22:15;;;;;;;12.63;11.40;;;;;;;10.52;100.00;96295.69;5068382;27;103135;-60
2023/05/20 01:24:47;;;;;;;11.73;10.63;;;;;;;10.43;100.00;96289.25;5048458;27;102023;-60
2023/05/20 01:27:14;;;;;;;12.10;10.90;;;;;;;10.36;100.00;96301.91;5048210;27;105266;-60
2023/05/20 01:29:43;;;;;;;10.87;9.87;;;;;;;10.41;100.00;96298.50;5051211;27;102220;-60
2023/05/20 01:32:12;;;;;;;11.47;10.30;;;;;;;10.34;100.00;96288.06;5057776;27;102840;-60
2023/05/20 01:34:42;;;;;;;12.27;11.10;;;;;;;10.23;100.00;96297.00;5056636;27;105787;-60
2023/05/20 01:37:11;;;;;;;12.53;11.33;;;;;;;10.19;100.00;96295.88;5048743;27;101840;-60
2023/05/20 01:39:40;;;;;;;12.00;10.87;;;;;;;10.12;100.00;96295.28;5046892;27;103767;-60
2023/05/20 01:42:10;;;;;;;11.93;10.73;;;;;;;10.15;100.00;96296.66;5029809;27;105391;-60
2023/05/20 01:44:38;;;;;;;12.43;11.13;;;;;;;10.18;100.00;96294.28;5039412;27;101896;-60
2023/05/20 01:47:05;;;;;;;11.13;10.13;;;;;;;10.03;100.00;96293.31;5067555;27;105969;-60
2023/05/20 01:49:32;;;;;;;12.30;11.10;;;;;;;9.77;100.00;96294.03;5065350;27;105865;-60
2023/05/20 01:52:00;;;;;;;13.67;11.90;;;;;;;9.94;100.00;96295.59;5068774;27;102089;-60
2023/05/20 01:54:26;;;;;;;12.23;10.97;;;;;;;9.83;100.00;96296.53;5053250;27;105969;-59
2023/05/20 01:56:53;;;;;;;13.50;12.10;;;;;;;9.81;100.00;96292.50;5067082;27;102281;-60
2023/05/20 01:59:24;;;;;;;12.63;11.43;;;;;;;9.89;100.00;96294.72;5067394;27;105290;-60
2023/05/20 02:01:51;;;;;;;13.57;12.17;;;;;;;9.86;100.00;96303.19;5066030;27;105246;-60
2023/05/20 02:04:18;;;;;;;13.73;12.40;;;;;;;9.79;100.00;96299.91;5060352;27;103169;-60
2023/05/20 02:06:46;;;;;;;13.13;11.83;;;;;;;9.83;100.00;96296.53;5057651;27;105306;-60
2023/05/20 02:09:13;;;;;;;14.43;12.27;;;;;;;9.90;100.00;96296.31;5069960;27;105763;-60
2023/05/20 02:11:40;;;;;;;13.83;12.53;;;;;;;9.90;100.00;96297.13;5070458;27;102138;-59
2023/05/20 02:14:08;;;;;;;14.43;13.03;;;;;;;9.93;100.00;96301.16;5070898;27;102547;-59
2023/05/20 02:16:36;;;;;;;13.30;12.00;;;;;;;9.97;100.00;96300.41;5050488;27;101765;-59
2023/05/20 02:19:03;;;;;;;16.60;14.90;;;;;;;9.95;100.00;96288.41;5053240;27;105059;-59
2023/05/20 02:21:31;;;;;;;17.37;15.53;;;;;;;9.95;100.00;96299.84;5070065;27;105484;-60
2023/05/20 02:23:58;;;;;;;16.23;14.53;;;;;;;9.92;100.00;96283.63;5070883;27;102255;-60
2023/05/20 02:26:27;;;;;;;17.17;15.30;;;;;;;9.96;100.00;96279.38;5072241;27;102537;-60
2023/05/20 02:28:54;;;;;;;16.60;14.57;;;;;;;9.97;100.00;96279.13;5068513;27;102752;-59
2023/05/20 02:31:22;;;;;;;14.70;13.33;;;;;;;9.97;100.00;96270.38;5049932;27;101946;-60
2023/05/20 02:33:50;;;;;;;13.23;11.93;;;;;;;9.91;100.00;96271.34;5050859;27;105290;-60
2023/05/20 02:36:18;;;;;;;13.60;12.30;;;;;;;9.91;100.00;96274.81;5073072;27;105465;-60
2023/05/20 02:38:44;;;;;;;13.40;11.97;;;;;;;9.85;100.00;96282.97;5068651;27;104871;-60
2023/05/20 02:41:11;;;;;;;13.43;12.13;;;;;;;9.88;100.00;96283.28;5069891;27;105591;-60
2023/05/20 02:43:39;;;;;;;25.93;23.17;;;;;;;9.92;100.00;96279.09;5069493;27;101827;-60
2023/05/20 02:46:06;;;;;;;22.30;20.00;;;;;;;9.89;100.00;96284.09;5049713;27;105982;-60
2023/05/20 02:48:33;;;;;;;23.87;20.77;;;;;;;9.75;100.00;96282.88;5050305;27;105592;-60
2023/05/20 02:51:02;;;;;;;17.57;15.83;;;;;;;9.67;100.00;96300.03;5071349;27;101851;-60
2023/05/20 02:53:29;;;;;;;21.87;19.57;;;;;;;9.76;100.00;96290.56;5069076;27;105812;-60
2023/05/20 02:55:55;;;;;;;17.77;14.57;;;;;;;9.67;100.00;96285.94;5072462;27;103644;-60
2023/05/20 02:58:26;;;;;;;16.60;14.90;;;;;;;9.76;100.00;96287.13;5069652;27;105371;-60
2023/05/20 03:00:53;;;;;;;14.63;13.10;;;;;;;9.82;100.00;96288.81;5048991;27;104942;-60
2023/05/20 03:03:20;;;;;;;16.90;15.03;;;;;;;9.90;100.00;96288.34;5051137;27;101723;-60
2023/05/20 03:05:47;;;;;;;18.23;16.30;;;;;;;9.90;100.00;96293.66;5055215;27;105404;-60
2023/05/20 03:08:16;;;;;;;16.20;14.60;;;;;;;9.94;100.00;96292.13;5069343;27;105289;-60
2023/05/20 03:10:44;;;;;;;17.70;15.90;;;;;;;9.95;100.00;96293.72;5049909;27;102005;-60
2023/05/20 03:13:13;;;;;;;15.17;13.77;;;;;;;9.95;100.00;96286.56;5050754;27;102351;-59
2023/05/20 03:15:43;;;;;;;14.60;13.10;;;;;;;10.05;100.00;96277.94;5069517;27;102519;-59
2023/05/20 03:18:09;;;;;;;13.67;12.37;;;;;;;10.04;100.00;96282.44;5073133;27;102275;-59
2023/05/20 03:20:37;;;;;;;15.33;12.07;;;;;;;10.05;100.00;96281.41;5068965;27;105188;-60
2023/05/20 03:23:06;;;;;;;13.53;12.27;;;;;;;9.98;100.00;96287.94;5054739;27;102042;-60
2023/05/20 03:25:34;;;;;;;13.13;11.93;;;;;;;9.96;100.00;96282.03;5049161;27;104877;-60
2023/05/20 03:28:01;;;;;;;13.87;12.50;;;;;;;9.76;100.00;96290.56;5047901;27;105861;-60
2023/05/20 03:30:28;;;;;;;14.60;13.13;;;;;;;9.84;100.00;96292.00;5049223;27;102161;-60
2023/05/20 03:32:57;;;;;;;15.30;13.60;;;;;;;9.95;100.00;96288.41;5048888;27;105208;-60
2023/05/20 03:35:25;;;;;;;15.53;13.67;;;;;;;10.02;100.00;96296.97;5059515;27;105802;-60
2023/05/20 03:37:53;;;;;;;18.53;15.40;;;;;;;10.12;100.00;96286.50;5069295;27;101920;-60
2023/05/20 03:40:23;;;;;;;17.77;14.03;;;;;;;10.14;100.00;96297.69;5060025;27;105309;-60
2023/05/20 03:42:51;;;;;;;17.63;15.70;;;;;;;10.22;100.00;96300.72;5060833;27;103492;-60
2023/05/20 03:45:20;;;;;;;15.90;13.97;;;;;;;10.26;100.00;96301.00;5053700;27;105080;-60
2023/05/20 03:48:13;;;;;;;22.23;19.83;;;;;;;10.26;100.00;96299.13;5047354;27;103533;-60
2023/05/20 03:50:41;;;;;;;22.30;19.50;;;;;;;10.26;100.00;96295.69;5048613;27;101953;-60
2023/05/20 03:53:08;;;;;;;19.13;15.30;;;;;;;10.24;100.00;96309.22;5061820;27;105091;-60
2023/05/20 03:55:40;;;;;;;18.30;15.17;;;;;;;10.21;100.00;96308.94;5048119;27;105588;-60
2023/05/20 03:58:09;;;;;;;17.63;15.83;;;;;;;10.16;100.00;96311.53;5048498;27;102004;-60
2023/05/20 04:00:36;;;;;;;18.00;16.30;;;;;;;10.23;100.00;96312.94;5056826;27;104968;-60
2023/05/20 04:03:03;;;;;;;17.47;15.73;;;;;;;10.32;100.00;96310.66;5058891;27;105308;-60
2023/05/20 04:05:30;;;;;;;15.93;14.40;;;;;;;10.35;100.00;96302.97;5048864;27;104917;-60
2023/05/20 04:07:58;;;;;;;16.80;14.90;;;;;;;10.42;100.00;96313.41;5047841;27;105529;-60
2023/05/20 04:10:26;;;;;;;16.47;14.77;;;;;;;10.38;100.00;96314.94;5031807;27;101948;-59
2023/05/20 04:12:53;;;;;;;15.70;14.10;;;;;;;10.47;100.00;96306.28;5048068;27;105275;-59
2023/05/20 04:15:24;;;;;;;15.80;14.30;;;;;;;10.59;100.00;96306.94;5065864;27;105257;-59
2023/05/20 04:17:56;;;;;;;15.83;14.27;;;;;;;10.60;100.00;96315.69;5069593;27;102193;-60
2023/05/20 04:20:23;;;;;;;16.00;14.40;;;;;;;10.64;100.00;96308.84;5069133;27;104344;-59
2023/05/20 04:22:52;;;;;;;15.93;14.30;;;;;;;10.68;100.00;96305.41;5056075;27;105094;-59
2023/05/20 04:25:20;;;;;;;15.80;14.30;;;;;;;10.72;100.00;96305.69;5068641;27;101873;-60
2023/05/20 04:27:48;;;;;;;15.93;14.33;;;;;;;10.84;100.00;96311.69;5057503;27;103196;-60
2023/05/20 04:30:16;;;;;;;16.23;14.53;;;;;;;10.87;100.00;96305.84;5046587;27;101923;-60
2023/05/20 04:32:47;;;;;;;16.40;14.70;;;;;;;10.86;100.00;96302.38;5047448;27;105770;-60
2023/05/20 04:35:15;;;;;;;15.23;13.83;;;;;;;11.09;100.00;96301.22;5062968;27;105579;-60
2023/05/20 04:37:47;;;;;;;16.03;14.40;;;;;;;11.14;100.00;96311.91;5065513;27;102341;-60
2023/05/20 04:40:14;;;;;;;16.43;14.57;;;;;;;11.20;100.00;96310.88;5067544;27;105243;-60
2023/05/20 04:42:42;;;;;;;15.63;14.07;;;;;;;11.25;100.00;96303.75;5054715;27;105173;-60
2023/05/20 04:45:11;;;;;;;16.90;14.00;;;;;;;11.33;100.00;96310.44;5062308;27;102368;-60
2023/05/20 04:47:38;;;;;;;14.97;13.43;;;;;;;11.38;100.00;96305.94;5069992;27;105550;-60
2023/05/20 04:50:10;;;;;;;17.53;14.47;;;;;;;11.21;100.00;96299.16;5067404;27;102169;-60
2023/05/20 04:52:37;;;;;;;15.07;12.97;;;;;;;11.15;100.00;96306.34;5065880;27;105401;-60
2023/05/20 04:55:09;;;;;;;15.40;13.37;;;;;;;11.17;100.00;96308.75;5054014;27;103069;-66
2023/05/20 04:57:38;;;;;;;14.00;12.60;;;;;;;11.15;100.00;96306.34;5047030;27;101876;-60
2023/05/20 05:00:08;;;;;;;14.00;12.53;;;;;;;11.20;100.00;96294.91;5046800;27;105686;-60
2023/05/20 05:02:35;;;;;;;14.17;12.77;;;;;;;11.37;100.00;96287.56;5046145;27;104991;-60
2023/05/20 05:05:03;;;;;;;16.33;14.20;;;;;;;11.45;100.00;96293.19;5059679;27;102069;-60
2023/05/20 05:07:31;;;;;;;15.67;13.87;;;;;;;11.43;100.00;96284.69;5070050;27;104860;-60
2023/05/20 05:09:58;;;;;;;19.13;15.33;;;;;;;11.45;100.00;96289.75;5066182;27;101921;-60
2023/05/20 05:12:27;;;;;;;17.07;14.83;;;;;;;11.60;100.00;96287.19;5054672;27;104863;-60
2023/05/20 05:14:54;;;;;;;18.20;15.20;;;;;;;11.74;100.00;96288.31;5060915;27;105725;-60
2023/05/20 05:17:21;;;;;;;16.53;14.23;;;;;;;11.84;100.00;96286.50;5055796;27;102007;-60
2023/05/20 05:19:47;;;;;;;21.83;15.70;;;;;;;11.97;100.00;96278.03;5047811;27;105361;-60
2023/05/20 05:22:14;;;;;;;18.03;14.77;;;;;;;12.09;100.00;96280.47;5047591;27;105461;-60
2023/05/20 05:25:05;;;;;;;20.77;16.27;;;;;;;12.20;100.00;96282.09;5060737;27;102039;-60
2023/05/20 05:27:32;;;;;;;22.03;17.33;;;;;;;12.16;100.00;96279.16;5068434;27;104835;-60
2023/05/20 05:30:00;;;;;;;24.17;17.47;;;;;;;12.11;100.00;96281.00;5069737;27;105360;-60
2023/05/20 05:32:28;;;;;;;31.20;20.47;;;;;;;12.09;100.00;96281.28;5068107;27;105228;-60
2023/05/20 05:34:59;;;;;;;28.50;19.40;;;;;;;12.10;100.00;96282.88;5067345;27;105763;-60
2023/05/20 05:37:28;;;;;;;30.60;21.00;;;;;;;12.14;100.00;96280.47;5048960;27;101751;-60
2023/05/20 05:39:55;;;;;;;28.00;20.07;;;;;;;12.27;100.00;96282.66;5062245;27;102871;-60
2023/05/20 05:42:23;;;;;;;26.20;20.07;;;;;;;12.38;100.00;96279.72;5056080;27;105511;-60
2023/05/20 05:44:51;;;;;;;24.33;19.27;;;;;;;12.41;100.00;96281.88;5064962;27;101987;-60
2023/05/20 05:47:20;;;;;;;24.03;18.03;;;;;;;12.59;100.00;96285.94;5071967;27;105411;-60
2023/05/20 05:49:48;;;;;;;25.90;18.60;;;;;;;12.45;100.00;96282.16;5070694;27;103215;-60
2023/05/20 05:52:14;;;;;;;24.77;18.83;;;;;;;12.46;100.00;96276.56;5075177;27;101898;-60
2023/05/20 05:54:43;;;;;;;23.77;19.13;;;;;;;12.60;100.00;96287.53;5055696;27;105401;-60
2023/05/20 05:57:10;;;;;;;24.40;20.33;;;;;;;12.63;100.00;96281.63;5051663;27;101922;-60
2023/05/20 05:59:39;;;;;;;22.03;19.70;;;;;;;12.62;100.00;96278.19;5066588;27;105376;-60
2023/05/20 06:02:08;;;;;;;23.63;19.93;;;;;;;12.65;100.00;96279.53;5058940;27;105270;-60
2023/05/20 06:04:41;;;;;;;24.10;19.97;;;;;;;12.39;100.00;96275.22;5050623;27;101979;-60
2023/05/20 06:07:10;;;;;;;21.33;18.90;;;;;;;12.56;100.00;96275.78;5055610;27;104533;-60
2023/05/20 06:10:03;;;;;;;25.17;19.57;;;;;;;12.78;100.00;96268.31;5065273;27;105641;-59
2023/05/20 06:13:20;;;;;;;25.77;19.90;;;;;;;12.90;100.00;96272.31;5054452;27;103111;-59
2023/05/20 06:16:56;;;;;;;22.77;18.37;;;;;;;12.93;100.00;96273.66;4991011;28;101951;-59
2023/05/20 06:19:32;;;;;;;21.80;18.37;;;;;;;12.90;100.00;96267.00;4909848;28;102611;-61
2023/05/20 06:21:59;;;;;;;21.93;18.13;;;;;;;12.96;100.00;96270.47;4895331;28;105321;-60
2023/05/20 06:24:31;;;;;;;22.37;19.13;;;;;;;12.62;100.00;96269.38;4894794;28;105111;-60
2023/05/20 06:26:58;;;;;;;20.87;18.60;;;;;;;12.57;100.00;96267.50;4908179;28;102091;-60
2023/05/20 06:29:25;;;;;;;20.63;18.47;;;;;;;12.63;100.00;96261.13;4902951;28;104813;-60
2023/05/20 06:31:53;;;;;;;22.13;17.90;;;;;;;12.84;100.00;96264.56;4894351;28;105700;-60
2023/05/20 06:34:29;;;;;;;20.83;18.73;;;;;;;12.96;100.00;96260.59;4905998;28;102082;-60
2023/05/20 06:36:56;;;;;;;24.17;20.40;;;;;;;13.02;100.00;96258.75;4911023;28;105028;-60
2023/05/20 06:39:23;;;;;;;21.37;18.83;;;;;;;13.08;100.00;96260.34;4929404;28;104730;-60
2023/05/20 06:41:50;;;;;;;20.90;18.70;;;;;;;13.14;100.00;96251.25;4926877;28;105375;-60
2023/05/20 06:44:33;;;;;;;20.50;18.30;;;;;;;13.32;100.00;96258.69;4900974;28;104953;-60
2023/05/20 06:47:23;;;;;;;19.60;17.50;;;;;;;13.33;100.00;96263.78;4910271;28;102388;-60
2023/05/20 06:49:54;;;;;;;20.93;18.67;;;;;;;13.25;100.00;96258.97;4923865;28;103749;-60
2023/05/20 06:52:21;;;;;;;23.77;19.53;;;;;;;13.12;100.00;96264.88;4984374;27;105761;-61
2023/05/20 06:55:01;;;;;;;19.77;17.73;;;;;;;13.07;100.00;96275.56;5049711;27;102391;-64
2023/05/20 06:57:28;;;;;;;23.77;19.47;;;;;;;13.05;100.00;96272.34;5050119;27;105309;-60
2023/05/20 06:59:55;;;;;;;20.67;18.47;;;;;;;13.09;100.00;96272.63;5049092;27;105063;-60
2023/05/20 07:02:25;;;;;;;21.63;19.10;;;;;;;13.09;100.00;96276.06;5073880;27;101719;-60
2023/05/20 07:05:40;;;;;;;22.87;19.40;;;;;;;13.29;100.00;96273.38;5053177;27;104185;-60
2023/05/20 07:08:10;;;;;;;21.47;19.03;;;;;;;13.37;100.00;96267.50;5070227;27;101904;-60
2023/05/20 07:10:37;;;;;;;21.57;19.27;;;;;;;13.37;100.00;96261.34;5049965;27;105255;-60
2023/05/20 07:13:09;;;;;;;20.77;18.67;;;;;;;13.71;100.00;96263.13;5049359;27;105597;-60
2023/05/20 07:15:37;;;;;;;22.37;19.13;;;;;;;13.80;100.00;96255.34;5050062;27;101845;-60
2023/05/20 07:18:07;;;;;;;23.87;20.90;;;;;;;13.70;100.00;96255.38;5049803;27;104973;-60
2023/05/20 07:20:34;;;;;;;21.77;19.53;;;;;;;13.75;100.00;96252.69;5049148;27;105438;-59
2023/05/20 07:23:10;;;;;;;22.47;20.07;;;;;;;13.93;100.00;96250.22;5053256;27;102273;-61
2023/05/20 07:25:41;;;;;;;24.50;21.90;;;;;;;13.78;100.00;96247.59;5049103;27;105956;-59
2023/05/20 07:28:09;;;;;;;22.57;20.03;;;;;;;14.06;100.00;96243.47;5049545;27;102209;-59
2023/05/20 07:30:36;;;;;;;21.30;19.07;;;;;;;13.96;100.00;96232.81;5053984;27;105004;-59
2023/05/20 07:33:31;;;;;;;20.30;18.27;;;;;;;14.48;100.00;96222.38;5069447;27;105451;-59
2023/05/20 07:35:59;;;;;;;20.20;17.80;;;;;;;14.93;100.00;96216.66;5071401;27;102112;-59
2023/05/20 07:38:26;;;;;;;22.10;18.10;;;;;;;15.17;100.00;96225.53;5066663;27;104788;-59
2023/05/20 07:41:00;;;;;;;19.37;17.47;;;;;;;15.27;100.00;96217.41;5048906;27;105264;-59
2023/05/20 07:43:41;;;;;;;18.30;16.40;;;;;;;15.50;100.00;96211.28;5050359;27;102077;-59
2023/05/20 07:46:07;;;;;;;19.80;17.80;;;;;;;15.13;100.00;96203.06;5053668;27;102872;-59
2023/05/20 07:48:36;;;;;;;20.00;18.03;;;;;;;15.05;100.00;96203.69;5057013;27;102439;-59
2023/05/20 07:51:03;;;;;;;22.03;18.20;;;;;;;14.85;100.00;96198.53;5052030;27;105585;-59
2023/05/20 07:53:30;;;;;;;17.90;16.10;;;;;;;15.35;100.00;96203.41;5056715;27;105119;-59
2023/05/20 07:55:58;;;;;;;17.60;15.90;;;;;;;15.79;100.00;96206.66;5048039;27;102080;-59
2023/05/20 07:58:27;;;;;;;19.60;17.50;;;;;;;15.66;100.00;96210.84;5061705;27;105163;-59
2023/05/20 08:00:55;;;;;;;18.60;16.67;;;;;;;15.40;100.00;96206.03;5068171;27;105560;-59
2023/05/20 08:03:22;;;;;;;19.00;17.00;;;;;;;15.22;100.00;96204.06;5067394;27;102114;-59
2023/05/20 08:06:03;;;;;;;19.67;17.10;;;;;;;15.67;100.00;96195.53;5067881;27;104976;-59
2023/05/20 08:08:30;;;;;;;17.10;15.33;;;;;;;15.94;100.00;96201.09;5070842;27;105645;-59
2023/05/20 08:11:03;;;;;;;17.50;15.73;;;;;;;15.60;100.00;96195.09;5068162;27;105269;-59
2023/05/20 08:13:31;;;;;;;17.73;15.93;;;;;;;16.25;100.00;96195.03;5068029;27;105773;-59
2023/05/20 08:16:02;;;;;;;18.97;16.47;;;;;;;16.76;100.00;96198.56;5069589;27;101973;-59
2023/05/20 08:18:31;;;;;;;17.07;15.33;;;;;;;17.13;100.00;96197.69;5067406;27;104994;-59
2023/05/20 08:20:59;;;;;;;17.77;15.97;;;;;;;17.55;100.00;96194.78;5067601;27;105657;-59
2023/05/20 08:23:27;;;;;;;16.00;14.37;;;;;;;18.06;100.00;96195.31;5058138;27;102187;-59
2023/05/20 08:25:56;;;;;;;11.40;10.30;;;;;;;18.25;100.00;96185.22;5047849;27;105210;-59
2023/05/20 08:28:25;;;;;;;13.80;12.37;;;;;;;18.49;100.00;96178.50;5047942;27;105414;-59
2023/05/20 08:30:52;;;;;;;10.43;9.47;;;;;;;18.60;100.00;96173.66;5051567;27;102199;-59
2023/05/20 08:33:20;;;;;;;11.53;10.30;;;;;;;17.42;100.00;96179.41;5049104;27;105870;-59
2023/05/20 08:35:47;;;;;;;10.57;9.67;;;;;;;17.90;100.00;96185.97;5047831;27;102529;-59
2023/05/20 08:38:15;;;;;;;10.20;9.30;;;;;;;18.30;100.00;96183.22;5048167;27;105318;-59
2023/05/20 08:40:44;;;;;;;8.50;7.70;;;;;;;18.80;100.00;96178.56;5047715;27;103302;-59
2023/05/20 08:43:11;;;;;;;7.80;7.10;;;;;;;19.01;100.00;96180.44;5064946;27;102292;-59
2023/05/20 08:45:39;;;;;;;7.90;7.13;;;;;;;19.07;100.00;96179.19;5063097;27;105607;-59
2023/05/20 08:48:11;;;;;;;7.63;6.80;;;;;;;18.82;100.00;96173.66;5048664;27;105140;-59
2023/05/20 08:50:39;;;;;;;7.13;6.53;;;;;;;18.89;100.00;96171.31;5049614;27;101912;-59
2023/05/20 08:53:06;;;;;;;7.83;7.13;;;;;;;18.84;100.00;96171.44;5052359;27;102335;-59
2023/05/20 08:55:41;;;;;;;8.10;7.40;;;;;;;18.50;100.00;96173.91;5049647;27;101836;-59
2023/05/20 08:58:10;;;;;;;8.17;7.37;;;;;;;18.68;100.00;96171.03;5054483;27;102440;-59
2023/05/20 09:00:37;;;;;;;7.20;6.60;;;;;;;19.17;100.00;96173.56;5069262;27;103151;-59
2023/05/20 09:03:05;;;;;;;6.80;6.10;;;;;;;19.27;100.00;96175.22;5066766;27;102059;-59
2023/05/20 09:05:31;;;;;;;6.50;5.90;;;;;;;19.17;100.00;96172.75;5068318;27;105263;-59
2023/05/20 09:08:07;;;;;;;6.33;5.73;;;;;;;19.36;100.00;96165.28;5062085;27;105362;-59
2023/05/20 09:10:35;;;;;;;5.87;5.30;;;;;;;19.50;100.00;96168.69;5049335;27;102232;-59
2023/05/20 09:13:03;;;;;;;5.83;5.33;;;;;;;19.64;100.00;96167.47;5063589;27;105369;-60
2023/05/20 09:15:31;;;;;;;10.27;9.30;;;;;;;19.25;100.00;96174.75;5070851;27;102359;-59
2023/05/20 09:18:01;;;;;;;10.03;9.10;;;;;;;19.32;100.00;96164.28;5061711;27;104989;-59
2023/05/20 09:20:30;;;;;;;9.70;8.80;;;;;;;19.47;100.00;96170.09;5048795;27;103344;-59
2023/05/20 09:23:00;;;;;;;7.57;6.97;;;;;;;19.62;100.00;96161.56;5048798;27;102365;-59
2023/05/20 09:25:28;;;;;;;9.33;8.53;;;;;;;19.13;100.00;96161.00;5047710;27;103886;-59
2023/05/20 09:27:55;;;;;;;8.47;7.67;;;;;;;19.41;100.00;96157.03;5052204;27;102624;-60
2023/05/20 09:30:23;;;;;;;8.07;7.33;;;;;;;19.78;100.00;96157.31;5069559;27;102072;-59
2023/05/20 09:32:55;;;;;;;8.37;7.57;;;;;;;19.46;100.00;96155.00;5050445;27;102286;-59
2023/05/20 09:35:22;;;;;;;10.33;9.43;;;;;;;19.50;100.00;96165.97;5050284;27;106227;-59
2023/05/20 09:37:52;;;;;;;8.40;7.63;;;;;;;19.72;100.00;96157.81;5063799;27;105202;-59
2023/05/20 09:40:23;;;;;;;7.57;6.80;;;;;;;20.06;100.00;96155.16;5048294;27;102590;-59
2023/05/20 09:42:54;;;;;;;7.73;7.13;;;;;;;19.78;100.00;96153.84;5048724;27;102326;-59
2023/05/20 09:45:23;;;;;;;8.23;7.40;;;;;;;19.98;100.00;96143.25;5065953;27;105804;-59
2023/05/20 09:47:51;;;;;;;8.33;7.63;;;;;;;20.59;100.00;96151.09;5065549;27;102562;-59
2023/05/20 09:50:21;;;;;;;8.07;7.30;;;;;;;21.18;100.00;96144.81;5048854;27;101966;-59
2023/05/20 09:52:49;;;;;;;7.87;7.13;;;;;;;21.06;100.00;96141.19;5048356;27;102883;-59
2023/05/20 09:55:16;;;;;;;9.43;8.43;;;;;;;20.76;100.00;96140.25;5047839;27;103249;-59
2023/05/20 09:57:43;;;;;;;9.37;8.37;;;;;;;20.75;100.00;96137.88;5057771;27;102115;-59
2023/05/20 10:00:12;;;;;;;8.00;7.30;;;;;;;20.72;100.00;96133.13;5068252;27;103200;-59
2023/05/20 10:02:44;;;;;;;7.70;7.00;;;;;;;21.19;100.00;96127.47;5068982;27;102169;-59
2023/05/20 10:05:16;;;;;;;6.87;6.27;;;;;;;21.54;100.00;96118.09;5068617;27;102961;-59
2023/05/20 10:08:20;;;;;;;6.50;5.90;;;;;;;22.36;100.00;96107.41;5062289;27;102745;-59
2023/05/20 10:10:52;;;;;;;5.53;5.03;;;;;;;22.56;100.00;96108.53;5047310;27;102343;-59
2023/05/20 10:13:34;;;;;;;4.37;4.07;;;;;;;23.06;100.00;96098.28;5049513;27;101892;-59
2023/05/20 10:16:10;;;;;;;5.73;5.30;;;;;;;22.39;100.00;96103.25;5046515;27;105874;-59
2023/05/20 10:18:58;;;;;;;3.60;3.30;;;;;;;23.53;100.00;96096.78;5045664;27;101961;-59
2023/05/20 10:21:25;;;;;;;3.30;2.77;;;;;;;24.23;100.00;96088.13;5070088;27;104843;-59
2023/05/20 10:23:54;;;;;;;3.33;3.03;;;;;;;24.24;100.00;96087.78;5068389;27;101969;-59
2023/05/20 10:26:21;;;;;;;3.40;3.20;;;;;;;24.09;100.00;96093.16;5068635;27;102422;-59
2023/05/20 10:28:49;;;;;;;2.90;2.70;;;;;;;23.39;100.00;96074.63;5069492;27;103045;-59
2023/05/20 10:31:17;;;;;;;3.43;2.93;;;;;;;23.28;100.00;96074.25;5070805;27;102080;-59
2023/05/20 10:33:46;;;;;;;2.83;2.63;;;;;;;23.58;100.00;96080.25;5052863;27;102533;-59
2023/05/20 10:36:24;;;;;;;3.17;2.60;;;;;;;23.96;100.00;96080.72;5051191;27;102708;-59
2023/05/20 10:38:55;;;;;;;2.40;2.20;;;;;;;24.27;93.99;96078.16;5051716;27;102224;-59
2023/05/20 10:41:25;;;;;;;2.70;2.50;;;;;;;24.37;100.00;96080.41;5034250;27;104521;-59
2023/05/20 10:44:02;;;;;;;2.50;2.30;;;;;;;24.38;84.92;96079.25;5054486;27;102665;-59
2023/05/20 10:46:29;;;;;;;2.90;2.70;;;;;;;24.77;90.07;96081.97;5051749;27;102372;-59
2023/05/20 10:48:56;;;;;;;3.00;2.80;;;;;;;24.61;87.08;96083.84;5070806;27;102796;-59
2023/05/20 10:51:24;;;;;;;2.90;2.57;;;;;;;24.30;80.32;96077.47;5070609;27;102020;-59
2023/05/20 10:53:55;;;;;;;2.30;2.20;;;;;;;24.32;81.25;96069.75;5069869;27;105231;-59
2023/05/20 10:56:24;;;;;;;2.70;2.50;;;;;;;24.27;83.64;96067.28;5069645;27;105010;-59
2023/05/20 10:58:52;;;;;;;2.73;2.40;;;;;;;24.14;93.85;96071.97;5050965;27;102198;-59
2023/05/20 11:01:22;;;;;;;2.60;2.40;;;;;;;24.49;81.06;96069.47;5049754;27;104872;-59
2023/05/20 11:03:50;;;;;;;2.70;2.50;;;;;;;24.70;91.10;96061.94;5050709;27;103069;-59
2023/05/20 11:06:18;;;;;;;3.13;2.30;;;;;;;24.72;81.98;96073.25;5072773;27;101948;-59
2023/05/20 11:08:45;;;;;;;3.27;2.50;;;;;;;24.88;76.48;96068.63;5068779;27;102717;-59
2023/05/20 11:11:15;;;;;;;2.57;2.30;;;;;;;25.10;75.84;96068.03;5069960;27;101889;-59
2023/05/20 11:13:42;;;;;;;2.53;2.33;;;;;;;25.00;71.28;96065.81;5069917;27;106008;-59
2023/05/20 11:16:09;;;;;;;2.30;2.20;;;;;;;24.88;74.06;96055.84;5068987;27;105834;-59
2023/05/20 11:18:36;;;;;;;2.50;2.20;;;;;;;25.22;80.11;96054.38;5054322;27;102171;-59